Time;durP1;ratioP1;P1;durP2;ratioP2;P2;SDS_P1;SDS_P2;PMS_P1;PMS_P2;Temp;Humidity;BMP_temperature;BMP_pressure;BME280_temperature;BME280_humidity;BME280_pressure;Samples;Min_cycle;Max_cycle;Signal;HPM_P1;HPM_P2
2023/07/18 00:03:12;;;;;;;3.83;2.33;;;28.70;46.00;;;;;;6194319;28;20085;-80
2023/07/18 00:06:44;;;;;;;6.78;3.25;;;28.50;46.20;;;;;;6192327;28;20030;-81
2023/07/18 00:10:13;;;;;;;13.13;3.03;;;28.50;46.40;;;;;;6176294;28;20030;-82
2023/07/18 00:18:16;;;;;;;6.35;3.00;;;28.40;46.80;;;;;;6215741;28;20041;-78
2023/07/18 00:21:20;;;;;;;6.00;3.13;;;28.10;46.90;;;;;;6198668;28;20119;-78
2023/07/18 00:36:29;;;;;;;;;;;;;;;;;;;;;
2023/07/18 00:40:21;;;;;;;5.22;3.63;;;28.50;47.50;;;;;;6071465;29;20083;-78
2023/07/18 00:43:48;;;;;;;7.97;3.30;;;28.10;47.30;;;;;;6070729;29;20048;-79
2023/07/18 00:47:45;;;;;;;11.20;2.80;;;28.40;47.40;;;;;;6071114;29;20458;-79
2023/07/18 00:51:10;;;;;;;7.72;3.55;;;28.50;47.60;;;;;;6057117;29;20040;-81
2023/07/18 00:54:20;;;;;;;6.15;2.85;;;28.50;47.60;;;;;;6094385;29;20115;-80
2023/07/18 00:57:53;;;;;;;6.88;3.33;;;27.60;47.20;;;;;;6077570;29;20134;-79
2023/07/18 01:01:42;;;;;;;;;;;;;;;;;;;;;
2023/07/18 01:04:53;;;;;;;9.15;3.42;;;27.40;47.40;;;;;;6047324;29;20587;-81
2023/07/18 01:08:07;;;;;;;5.57;3.10;;;28.30;47.60;;;;;;6055463;29;20109;-80
2023/07/18 01:11:55;;;;;;;4.57;2.75;;;28.30;47.80;;;;;;6077737;29;20103;-80
2023/07/18 01:19:35;;;;;;;;;;;;;;;;;;;;;
2023/07/18 01:23:10;;;;;;;10.68;2.88;;;28.10;48.50;;;;;;6129068;29;20133;-81
2023/07/18 01:26:57;;;;;;;9.70;3.10;;;28.10;48.70;;;;;;6125790;29;20099;-81
2023/07/18 01:30:37;;;;;;;5.78;3.33;;;28.70;49.00;;;;;;6141662;29;20491;-80
2023/07/18 01:34:14;;;;;;;8.75;3.47;;;28.00;48.50;;;;;;6103849;29;20134;-80
2023/07/18 01:37:19;;;;;;;6.32;3.05;;;28.00;48.60;;;;;;6126548;29;20396;-79
2023/07/18 01:40:25;;;;;;;6.90;3.20;;;28.00;48.70;;;;;;6116588;28;20370;-80
2023/07/18 01:44:01;;;;;;;6.63;2.90;;;27.90;48.80;;;;;;6168599;28;20014;-80
2023/07/18 01:47:49;;;;;;;57.88;4.50;;;27.90;49.00;;;;;;6169844;28;20036;-79
2023/07/18 01:54:45;;;;;;;10.93;3.83;;;27.90;49.20;;;;;;6160527;28;20027;-80
2023/07/18 01:58:14;;;;;;;5.53;3.20;;;27.90;49.20;;;;;;6156157;28;20035;-79
2023/07/18 02:01:42;;;;;;;6.28;3.05;;;27.80;49.30;;;;;;6173332;28;20027;-77
2023/07/18 02:05:02;;;;;;;4.13;2.67;;;27.80;49.40;;;;;;6173936;28;20508;-81
2023/07/18 02:08:20;;;;;;;5.78;3.13;;;27.70;49.70;;;;;;6173268;28;20026;-80
2023/07/18 02:11:33;;;;;;;5.22;3.17;;;27.70;49.80;;;;;;6172655;28;20447;-81
2023/07/18 02:15:02;;;;;;;7.53;3.00;;;27.70;49.80;;;;;;6174218;28;20715;-80
2023/07/18 02:18:26;;;;;;;8.10;3.22;;;27.60;50.20;;;;;;6172287;28;20126;-78
2023/07/18 02:29:41;;;;;;;7.85;3.35;;;27.50;50.90;;;;;;6171620;28;20047;-81
2023/07/18 02:32:46;;;;;;;10.10;3.97;;;27.30;50.90;;;;;;6155500;28;20493;-80
2023/07/18 02:35:57;;;;;;;9.00;3.58;;;27.30;50.90;;;;;;6154760;28;20031;-78
2023/07/18 02:39:30;;;;;;;7.75;3.60;;;27.30;51.20;;;;;;6156338;28;20038;-78
2023/07/18 02:42:54;;;;;;;6.03;3.08;;;26.40;50.60;;;;;;6171580;28;20065;-78
2023/07/18 02:46:11;;;;;;;6.72;3.50;;;27.30;51.20;;;;;;6171112;28;20034;-80
2023/07/18 02:49:13;;;;;;;11.30;3.47;;;27.30;51.30;;;;;;6192300;28;20046;-80
2023/07/18 02:52:19;;;;;;;10.60;3.15;;;27.20;51.40;;;;;;6176496;28;20077;-80
2023/07/18 02:55:36;;;;;;;9.02;3.30;;;27.20;51.20;;;;;;6175908;28;20085;-81
2023/07/18 02:59:22;;;;;;;;;;;;;;;;;;;;;
2023/07/18 03:02:54;;;;;;;;;;;;;;;;;;;;;
2023/07/18 03:06:19;;;;;;;7.20;3.63;;;27.40;51.40;;;;;;6120587;29;20046;-81
2023/07/18 03:09:27;;;;;;;9.80;3.50;;;27.40;51.10;;;;;;6119222;29;20047;-80
2023/07/18 03:13:06;;;;;;;8.98;3.38;;;27.40;51.10;;;;;;6121085;29;20036;-79
2023/07/18 03:21:27;;;;;;;8.23;3.75;;;27.30;51.00;;;;;;6050614;29;20112;-80
2023/07/18 03:24:42;;;;;;;6.05;3.33;;;26.70;50.70;;;;;;6004886;29;20041;-79
2023/07/18 03:28:17;;;;;;;8.60;3.33;;;27.40;51.40;;;;;;5973133;29;20050;-79
2023/07/18 03:31:26;;;;;;;9.68;3.30;;;27.40;51.40;;;;;;5966521;29;20050;-78
2023/07/18 03:34:33;;;;;;;11.55;4.32;;;27.40;51.70;;;;;;5982152;29;20121;-81
2023/07/18 03:38:08;;;;;;;7.20;3.33;;;27.20;51.90;;;;;;5980839;29;20826;-80
2023/07/18 03:41:28;;;;;;;7.40;3.85;;;27.30;52.10;;;;;;5981897;29;20191;-81
2023/07/18 03:45:02;;;;;;;10.32;3.13;;;27.20;52.20;;;;;;6144048;23;20125;-78
2023/07/18 03:49:20;;;;;;;;;;;;;;;;;;;;;
2023/07/18 03:52:02;;;;;;;8.77;3.10;;;27.20;53.00;;;;;;6186797;28;20030;-79
2023/07/18 03:56:45;;;;;;;7.60;3.42;;;27.20;52.40;;;;;;6177756;28;20022;-78
2023/07/18 04:00:18;;;;;;;5.85;3.13;;;27.40;52.60;;;;;;6049806;29;20037;-78
2023/07/18 04:07:52;;;;;;;9.00;4.22;;;26.80;52.90;;;;;;6047227;29;20577;-79
2023/07/18 04:11:55;;;;;;;8.75;3.35;;;26.80;53.00;;;;;;6036719;29;20378;-78
2023/07/18 04:15:44;;;;;;;10.82;3.38;;;26.70;52.90;;;;;;6033753;29;20116;-81
2023/07/18 04:22:53;;;;;;;5.60;3.30;;;26.60;53.10;;;;;;6025774;29;20140;-80
2023/07/18 04:26:09;;;;;;;8.18;3.72;;;26.80;53.00;;;;;;6011749;29;20065;-83
2023/07/18 04:33:40;;;;;;;7.72;3.50;;;26.80;53.20;;;;;;5961720;29;20118;-78
2023/07/18 04:37:15;;;;;;;6.22;4.00;;;26.80;52.90;;;;;;5957817;29;20073;-78
2023/07/18 04:41:02;;;;;;;;;;;;;;;;;;;;;
2023/07/18 04:44:45;;;;;;;;;;;;;;;;;;;;;
2023/07/18 04:52:24;;;;;;;8.77;3.83;;;27.00;53.00;;;;;;5934730;30;20039;-80
2023/07/18 05:00:59;;;;;;;;;;;;;;;;;;;;;
2023/07/18 05:22:43;;;;;;;;;;;;;;;;;;;;;
2023/07/18 06:11:03;;;;;;;11.25;3.83;;;27.40;52.90;;;;;;6356103;23;20046;-81
2023/07/18 06:14:51;;;;;;;8.52;4.13;;;26.50;52.50;;;;;;6078199;29;20036;-79
2023/07/18 06:23:00;;;;;;;11.73;4.07;;;27.30;53.20;;;;;;6062196;29;20041;-81
2023/07/18 06:26:04;;;;;;;6.82;3.72;;;27.40;53.20;;;;;;6017701;29;20026;-79
2023/07/18 06:29:06;;;;;;;7.70;3.90;;;27.50;52.90;;;;;;6005679;29;20593;-78
2023/07/18 06:32:12;;;;;;;8.18;4.15;;;27.50;53.00;;;;;;6015005;29;20052;-78
2023/07/18 06:35:26;;;;;;;7.50;4.15;;;27.60;53.00;;;;;;5996550;29;20487;-78
2023/07/18 06:38:33;;;;;;;8.43;3.70;;;27.60;52.90;;;;;;6009435;29;20050;-79
2023/07/18 06:41:37;;;;;;;11.18;3.47;;;27.70;52.60;;;;;;6005952;29;20045;-82
2023/07/18 06:45:13;;;;;;;10.02;4.20;;;27.90;52.40;;;;;;6038505;29;20053;-80
2023/07/18 06:49:33;;;;;;;;;;;;;;;;;;;;;
2023/07/18 06:53:21;;;;;;;5.38;3.55;;;28.10;51.80;;;;;;5992731;29;20136;-78
2023/07/18 06:57:19;;;;;;;10.75;3.72;;;26.80;50.60;;;;;;6035470;29;20101;-79
2023/07/18 07:01:07;;;;;;;14.55;4.25;;;28.20;51.40;;;;;;6079027;29;20044;-81
2023/07/18 07:04:30;;;;;;;10.02;4.05;;;28.10;51.30;;;;;;6086432;29;20571;-80
2023/07/18 07:07:58;;;;;;;7.32;3.85;;;28.40;51.50;;;;;;6103739;29;20210;-79
2023/07/18 07:11:04;;;;;;;9.63;5.07;;;27.40;50.80;;;;;;6088421;29;20024;-79
2023/07/18 07:14:11;;;;;;;10.82;6.15;;;28.00;51.90;;;;;;6088936;29;20048;-77
2023/07/18 07:17:17;;;;;;;14.38;4.93;;;28.10;51.40;;;;;;6107639;29;20024;-81
2023/07/18 07:20:28;;;;;;;9.93;4.95;;;28.10;51.40;;;;;;6107012;29;20168;-79
2023/07/18 07:23:30;;;;;;;13.32;4.13;;;28.20;51.70;;;;;;6105214;29;20038;-80
2023/07/18 07:26:42;;;;;;;10.88;4.65;;;28.30;51.30;;;;;;6092604;29;20043;-80
2023/07/18 07:29:45;;;;;;;13.55;4.47;;;28.40;51.10;;;;;;6123304;28;20034;-82
2023/07/18 07:32:54;;;;;;;12.85;3.85;;;28.30;51.00;;;;;;6176898;28;20027;-79
2023/07/18 07:35:55;;;;;;;10.82;3.75;;;28.30;51.10;;;;;;6177965;28;20761;-79
2023/07/18 07:38:58;;;;;;;7.20;4.25;;;28.30;50.90;;;;;;6176184;28;20081;-79
2023/07/18 07:42:01;;;;;;;20.08;4.40;;;28.40;50.80;;;;;;6178401;28;20394;-77
2023/07/18 07:45:07;;;;;;;18.17;4.43;;;28.50;50.40;;;;;;6178212;28;20423;-81
2023/07/18 07:48:11;;;;;;;7.80;3.88;;;28.60;50.20;;;;;;6179006;28;20769;-79
2023/07/18 07:51:16;;;;;;;7.30;3.83;;;28.70;49.90;;;;;;6176150;28;20030;-78
2023/07/18 07:54:19;;;;;;;9.45;4.18;;;28.80;49.70;;;;;;6188784;28;20023;-80
2023/07/18 07:57:21;;;;;;;9.80;4.13;;;28.80;49.40;;;;;;6208922;28;20054;-77
2023/07/18 08:00:22;;;;;;;10.00;3.70;;;28.90;49.40;;;;;;6200122;28;20023;-78
2023/07/18 08:03:24;;;;;;;7.43;3.90;;;28.90;49.40;;;;;;6180924;28;20038;-82
2023/07/18 08:06:25;;;;;;;10.32;4.15;;;29.10;49.30;;;;;;6198463;28;20103;-81
2023/07/18 08:09:27;;;;;;;8.18;3.80;;;29.30;48.90;;;;;;6202617;28;20057;-80
2023/07/18 08:12:29;;;;;;;14.38;3.72;;;29.40;48.60;;;;;;6200451;28;20342;-80
2023/07/18 08:15:31;;;;;;;12.88;4.38;;;29.50;48.00;;;;;;6179138;28;20033;-79
2023/07/18 08:18:34;;;;;;;5.05;3.85;;;29.50;47.80;;;;;;6183347;28;20108;-79
2023/07/18 08:21:35;;;;;;;9.23;4.07;;;29.60;47.70;;;;;;6211375;28;20697;-82
2023/07/18 08:24:40;;;;;;;10.90;4.18;;;29.70;47.80;;;;;;6219769;23;20541;-80
2023/07/18 08:27:42;;;;;;;7.68;4.13;;;29.70;47.60;;;;;;6195516;28;20058;-81
2023/07/18 08:30:44;;;;;;;10.30;4.18;;;29.00;46.90;;;;;;6168715;28;20034;-81
2023/07/18 08:33:46;;;;;;;7.03;3.50;;;29.70;47.50;;;;;;6181501;28;20058;-82
2023/07/18 08:36:49;;;;;;;13.10;4.78;;;29.60;47.70;;;;;;6204493;28;20255;-81
2023/07/18 08:39:51;;;;;;;8.02;4.47;;;29.60;47.80;;;;;;6206275;28;20439;-78
2023/07/18 08:42:52;;;;;;;8.20;4.22;;;29.60;47.60;;;;;;6168908;28;20031;-81
2023/07/18 08:45:56;;;;;;;10.00;4.20;;;29.70;47.80;;;;;;6169022;28;20046;-79
2023/07/18 08:48:59;;;;;;;8.55;4.53;;;29.80;47.50;;;;;;6162373;28;20042;-80
2023/07/18 08:52:01;;;;;;;8.20;4.60;;;29.90;47.00;;;;;;6198603;28;20040;-80
2023/07/18 08:55:07;;;;;;;7.38;4.22;;;30.00;46.80;;;;;;6181473;28;20140;-78
2023/07/18 08:58:09;;;;;;;11.65;4.00;;;30.10;46.80;;;;;;6181834;28;20069;-78
2023/07/18 09:01:12;;;;;;;9.05;4.22;;;30.10;46.80;;;;;;6202329;28;20091;-79
2023/07/18 09:04:14;;;;;;;8.23;3.70;;;30.10;46.80;;;;;;6186273;28;20044;-79
2023/07/18 09:07:19;;;;;;;8.80;4.07;;;30.10;46.70;;;;;;6203101;28;20478;-80
2023/07/18 09:10:21;;;;;;;8.73;4.38;;;29.50;46.30;;;;;;6202445;28;20096;-79
2023/07/18 09:13:25;;;;;;;9.95;3.60;;;30.30;46.70;;;;;;6176346;28;20065;-79
2023/07/18 09:16:27;;;;;;;9.00;3.35;;;30.40;46.50;;;;;;6159540;28;20027;-82
2023/07/18 09:20:07;;;;;;;7.25;4.25;;;29.80;45.50;;;;;;6178560;28;20030;-79
2023/07/18 09:23:09;;;;;;;9.68;3.90;;;30.50;45.90;;;;;;6110633;29;20090;-83
2023/07/18 09:26:15;;;;;;;8.75;3.75;;;30.70;45.70;;;;;;6109494;29;20338;-79
2023/07/18 09:29:17;;;;;;;8.57;4.43;;;31.00;45.50;;;;;;6109664;29;20039;-81
2023/07/18 09:32:23;;;;;;;9.18;4.32;;;31.20;44.90;;;;;;6110336;29;20064;-81
2023/07/18 09:35:27;;;;;;;12.13;5.03;;;31.30;44.70;;;;;;6112048;29;20415;-78
2023/07/18 09:38:32;;;;;;;13.77;4.85;;;31.50;44.50;;;;;;6111434;29;20134;-81
2023/07/18 09:41:35;;;;;;;12.70;4.20;;;31.70;44.30;;;;;;6111997;29;20040;-80
2023/07/18 09:44:40;;;;;;;11.88;3.50;;;31.30;43.50;;;;;;6111340;29;20082;-81
2023/07/18 09:47:43;;;;;;;11.30;4.35;;;32.20;43.70;;;;;;6126126;29;20036;-80
2023/07/18 09:50:48;;;;;;;16.58;4.82;;;32.10;43.20;;;;;;6111859;29;20191;-80
2023/07/18 09:53:51;;;;;;;19.52;5.32;;;31.90;42.80;;;;;;6110265;29;20043;-80
2023/07/18 09:56:54;;;;;;;7.95;4.05;;;32.20;42.60;;;;;;6109156;29;20028;-80
2023/07/18 10:00:00;;;;;;;7.13;4.03;;;32.40;42.70;;;;;;6141434;28;20039;-79
2023/07/18 10:03:04;;;;;;;15.20;4.30;;;32.30;42.70;;;;;;6152149;28;20031;-80
2023/07/18 10:06:10;;;;;;;11.27;4.38;;;32.40;42.40;;;;;;6134908;29;20039;-82
2023/07/18 10:09:12;;;;;;;8.48;4.07;;;32.50;42.50;;;;;;6171665;28;20039;-80
2023/07/18 10:12:13;;;;;;;15.93;4.28;;;32.60;42.40;;;;;;6156875;28;20034;-82
2023/07/18 10:15:14;;;;;;;10.13;3.80;;;32.70;42.30;;;;;;6173810;28;20450;-81
2023/07/18 10:18:18;;;;;;;8.35;4.20;;;32.70;42.30;;;;;;6175631;28;20035;-80
2023/07/18 10:21:33;;;;;;;19.67;4.85;;;32.80;42.30;;;;;;6157651;28;20126;-80
2023/07/18 10:24:35;;;;;;;10.35;4.57;;;32.80;42.20;;;;;;6192801;28;20068;-80
2023/07/18 10:27:44;;;;;;;7.85;4.10;;;33.10;42.10;;;;;;6198589;28;20034;-80
2023/07/18 10:30:47;;;;;;;8.18;4.55;;;33.20;41.90;;;;;;6198542;28;20485;-81
2023/07/18 10:34:09;;;;;;;25.17;4.75;;;33.30;41.70;;;;;;6198243;28;20030;-81
2023/07/18 10:37:10;;;;;;;8.40;4.13;;;33.50;41.80;;;;;;6183025;28;20506;-78
2023/07/18 10:40:35;;;;;;;9.93;4.25;;;33.60;41.40;;;;;;6182668;28;20109;-78
2023/07/18 10:43:47;;;;;;;7.57;3.85;;;32.90;40.70;;;;;;6180801;28;20068;-79
2023/07/18 10:46:50;;;;;;;12.00;3.90;;;33.80;40.90;;;;;;6195999;28;20467;-81
2023/07/18 10:49:54;;;;;;;11.10;4.53;;;33.90;40.60;;;;;;6197847;28;20053;-78
2023/07/18 10:52:56;;;;;;;8.07;3.88;;;34.10;40.30;;;;;;6200988;28;20038;-79
2023/07/18 10:55:58;;;;;;;5.43;3.75;;;34.40;39.90;;;;;;6199864;28;20049;-80
2023/07/18 10:59:00;;;;;;;14.40;4.28;;;34.40;39.10;;;;;;6200455;28;20030;-81
2023/07/18 11:02:03;;;;;;;7.07;4.13;;;34.80;39.00;;;;;;6199560;28;20173;-81
2023/07/18 11:05:11;;;;;;;8.55;4.68;;;34.90;38.40;;;;;;6183286;28;20038;-79
2023/07/18 11:08:23;;;;;;;6.75;3.58;;;35.10;38.10;;;;;;6176284;28;20031;-78
2023/07/18 11:11:24;;;;;;;8.80;3.90;;;35.70;37.40;;;;;;6191713;28;20295;-81
2023/07/18 11:14:38;;;;;;;7.80;3.72;;;37.00;36.50;;;;;;6175652;28;20146;-79
2023/07/18 11:17:41;;;;;;;7.72;3.75;;;37.10;35.20;;;;;;6176973;28;20513;-79
2023/07/18 11:20:43;;;;;;;10.38;4.15;;;37.80;34.20;;;;;;6175964;28;20097;-78
2023/07/18 11:23:47;;;;;;;8.20;3.72;;;38.30;33.30;;;;;;6176450;28;20039;-79
2023/07/18 11:27:14;;;;;;;11.10;3.95;;;38.50;32.90;;;;;;6176445;28;20054;-79
2023/07/18 11:30:20;;;;;;;5.13;3.63;;;38.80;32.50;;;;;;6191957;28;20031;-79
2023/07/18 11:33:28;;;;;;;;;;;38.90;32.10;;;;;;6173865;28;20094;-77
2023/07/18 11:36:31;;;;;;;11.05;3.55;;;38.80;31.90;;;;;;6171251;28;19933;-78
2023/07/18 11:39:32;;;;;;;3.95;2.97;;;38.70;31.90;;;;;;6169525;28;20113;-78
2023/07/18 11:42:49;;;;;;;9.52;3.75;;;39.10;31.80;;;;;;6170394;28;20031;-79
2023/07/18 11:45:56;;;;;;;4.20;2.63;;;38.80;31.10;;;;;;6176385;28;20050;-79
2023/07/18 11:48:57;;;;;;;7.53;3.33;;;39.20;30.70;;;;;;6176327;28;20066;-77
2023/07/18 11:52:03;;;;;;;5.55;3.08;;;39.50;30.20;;;;;;6176709;28;20035;-79
2023/07/18 11:55:16;;;;;;;6.82;2.80;;;39.70;30.40;;;;;;6320371;23;20524;-78
2023/07/18 11:58:32;;;;;;;11.50;3.35;;;39.50;29.80;;;;;;6199924;28;20058;-79
2023/07/18 12:02:01;;;;;;;9.00;3.17;;;39.50;29.70;;;;;;6195036;28;20022;-80
2023/07/18 12:05:46;;;;;;;4.05;2.60;;;39.70;30.20;;;;;;6172943;28;20066;-81
2023/07/18 12:08:54;;;;;;;11.07;2.90;;;39.10;30.40;;;;;;6177708;28;20064;-80
2023/07/18 12:11:55;;;;;;;9.02;3.22;;;39.20;30.20;;;;;;6159371;28;20038;-82
2023/07/18 12:15:10;;;;;;;5.97;2.63;;;39.40;30.90;;;;;;6160954;28;20046;-81
2023/07/18 12:18:20;;;;;;;4.57;2.97;;;39.40;30.30;;;;;;6174187;28;20102;-81
2023/07/18 12:21:35;;;;;;;3.72;2.58;;;39.50;30.40;;;;;;6174202;28;20545;-79
2023/07/18 12:24:42;;;;;;;3.95;2.70;;;39.50;30.40;;;;;;6105823;29;20082;-78
2023/07/18 12:27:47;;;;;;;12.15;3.47;;;39.20;30.00;;;;;;6107732;29;20059;-80
2023/07/18 12:30:54;;;;;;;;;;;39.60;30.10;;;;;;6091459;29;20043;-81
2023/07/18 12:33:56;;;;;;;8.60;2.97;;;39.40;30.50;;;;;;6091121;29;19911;-80
2023/07/18 12:37:21;;;;;;;12.40;3.50;;;39.30;30.80;;;;;;6108083;29;20426;-79
2023/07/18 12:44:57;;;;;;;3.80;2.78;;;39.10;31.20;;;;;;6057483;29;20044;-81
2023/07/18 12:48:48;;;;;;;8.35;3.53;;;38.60;32.00;;;;;;6055095;29;20045;-82
2023/07/18 12:52:50;;;;;;;5.93;3.17;;;38.20;32.50;;;;;;6057524;29;20132;-79
2023/07/18 12:56:38;;;;;;;10.40;3.88;;;37.70;33.10;;;;;;6306685;23;20075;-78
2023/07/18 13:01:16;;;;;;;5.40;2.67;;;37.70;33.20;;;;;;6174735;28;20519;-79
2023/07/18 13:04:25;;;;;;;6.47;3.38;;;38.00;34.00;;;;;;6061217;29;20052;-81
2023/07/18 13:07:30;;;;;;;10.32;3.53;;;37.20;34.00;;;;;;6075474;29;20074;-79
2023/07/18 13:10:45;;;;;;;9.88;3.22;;;37.00;34.30;;;;;;6055697;29;20813;-80
2023/07/18 13:13:54;;;;;;;10.25;3.30;;;36.90;34.50;;;;;;6186119;23;20416;-79
2023/07/18 13:20:50;;;;;;;5.60;3.15;;;37.30;34.00;;;;;;6823966;23;19923;-80
2023/07/18 13:23:50;;;;;;;13.43;3.70;;;38.10;33.40;;;;;;6144072;28;20043;-79
2023/07/18 13:26:51;;;;;;;6.40;2.80;;;38.40;33.20;;;;;;6130053;29;20178;-79
2023/07/18 13:29:52;;;;;;;8.25;3.20;;;39.00;32.70;;;;;;6163488;28;20163;-78
2023/07/18 13:32:53;;;;;;;9.07;3.53;;;40.10;31.40;;;;;;6171533;28;20431;-79
2023/07/18 13:35:57;;;;;;;9.07;3.00;;;41.30;30.10;;;;;;6167146;28;20027;-80
2023/07/18 13:38:59;;;;;;;5.10;3.15;;;42.50;28.80;;;;;;6168158;28;20806;-77
2023/07/18 13:41:59;;;;;;;9.98;3.25;;;43.10;27.90;;;;;;6146916;28;20039;-79
2023/07/18 13:45:02;;;;;;;5.93;3.08;;;43.70;27.40;;;;;;6158388;28;20054;-78
2023/07/18 13:48:05;;;;;;;11.00;3.10;;;44.60;26.50;;;;;;6162214;28;20106;-78
2023/07/18 13:51:06;;;;;;;8.35;3.40;;;45.60;25.60;;;;;;6152058;28;20443;-79
2023/07/18 13:54:07;;;;;;;4.22;2.90;;;46.60;24.80;;;;;;6155090;28;20037;-78
2023/07/18 13:57:08;;;;;;;5.82;3.05;;;47.20;23.80;;;;;;6169688;28;20212;-78
2023/07/18 14:00:10;;;;;;;11.80;3.47;;;46.70;23.70;;;;;;6164701;28;20027;-79
2023/07/18 14:03:13;;;;;;;4.88;3.22;;;45.90;24.20;;;;;;6172385;28;20058;-78
2023/07/18 14:06:15;;;;;;;14.15;3.30;;;45.60;24.60;;;;;;6173686;28;20054;-78
2023/07/18 14:09:16;;;;;;;6.72;3.28;;;46.10;24.30;;;;;;6157694;28;20116;-80
2023/07/18 14:12:17;;;;;;;11.27;3.88;;;46.40;23.90;;;;;;6170013;28;20456;-76
2023/07/18 14:15:17;;;;;;;5.93;3.17;;;46.50;23.90;;;;;;6169207;28;20205;-77
2023/07/18 14:18:18;;;;;;;6.85;3.40;;;47.20;23.60;;;;;;6167191;28;20383;-80
2023/07/18 14:21:19;;;;;;;7.93;3.28;;;47.80;23.30;;;;;;6154211;28;20059;-77
2023/07/18 14:24:20;;;;;;;5.13;3.00;;;48.20;22.90;;;;;;6151064;28;20730;-78
2023/07/18 14:27:21;;;;;;;8.63;3.30;;;48.40;22.40;;;;;;6146811;28;20031;-78
2023/07/18 14:30:22;;;;;;;10.98;3.50;;;48.50;22.50;;;;;;6145201;29;20045;-77
2023/07/18 14:33:23;;;;;;;7.38;3.25;;;48.80;22.30;;;;;;6147519;28;20081;-78
2023/07/18 14:36:25;;;;;;;9.77;3.20;;;49.10;22.30;;;;;;6147993;28;20064;-77
2023/07/18 14:39:26;;;;;;;5.97;3.38;;;49.60;22.00;;;;;;6145392;29;20093;-78
2023/07/18 14:42:26;;;;;;;6.38;3.17;;;49.50;21.80;;;;;;6145836;28;20042;-78
2023/07/18 14:45:27;;;;;;;5.97;3.00;;;49.30;21.90;;;;;;6145613;29;20046;-78
2023/07/18 14:48:28;;;;;;;8.93;3.05;;;49.20;21.90;;;;;;6148854;29;20042;-78
2023/07/18 14:51:31;;;;;;;8.25;3.47;;;48.80;22.20;;;;;;6149282;29;20020;-79
2023/07/18 14:54:32;;;;;;;8.60;3.17;;;48.40;22.60;;;;;;6145547;29;20115;-79
2023/07/18 14:57:33;;;;;;;11.43;3.38;;;48.30;22.70;;;;;;6143562;28;20526;-79
2023/07/18 15:00:44;;;;;;;4.80;3.30;;;48.10;22.70;;;;;;6162923;28;20050;-79
2023/07/18 15:03:45;;;;;;;15.05;4.40;;;47.90;22.90;;;;;;6156419;28;20041;-78
2023/07/18 15:06:46;;;;;;;11.55;3.38;;;47.10;23.40;;;;;;6139584;29;20031;-79
2023/07/18 15:09:47;;;;;;;7.32;3.58;;;46.30;24.10;;;;;;6134608;29;20039;-79
2023/07/18 15:13:08;;;;;;;15.57;3.55;;;45.40;24.80;;;;;;6147754;28;20106;-77
2023/07/18 15:16:09;;;;;;;10.30;3.78;;;44.50;25.60;;;;;;6170134;28;20138;-78
2023/07/18 15:19:10;;;;;;;6.32;3.70;;;44.10;26.00;;;;;;6168913;28;20034;-78
2023/07/18 15:22:11;;;;;;;6.47;3.53;;;44.10;26.30;;;;;;6159236;28;20051;-78
2023/07/18 15:25:12;;;;;;;8.38;3.70;;;44.00;26.50;;;;;;6159220;28;20106;-78
2023/07/18 15:28:14;;;;;;;5.43;3.05;;;44.10;26.50;;;;;;6169243;28;20038;-80
2023/07/18 15:31:16;;;;;;;7.32;3.50;;;44.90;25.90;;;;;;6171463;28;20519;-78
2023/07/18 15:34:17;;;;;;;8.68;3.20;;;46.00;25.10;;;;;;6170248;28;20121;-78
2023/07/18 15:37:18;;;;;;;5.10;3.13;;;46.80;24.20;;;;;;6169773;28;20027;-78
2023/07/18 15:40:19;;;;;;;9.20;3.55;;;47.40;23.60;;;;;;6171501;28;20042;-78
2023/07/18 15:43:20;;;;;;;6.13;3.58;;;48.00;23.00;;;;;;6130334;29;20114;-79
2023/07/18 15:46:21;;;;;;;9.85;3.65;;;48.60;22.70;;;;;;6146679;29;20082;-79
2023/07/18 15:49:22;;;;;;;10.70;3.72;;;49.00;22.50;;;;;;6144962;29;20051;-78
2023/07/18 15:52:23;;;;;;;13.32;3.90;;;49.40;22.30;;;;;;6140579;29;20087;-77
2023/07/18 15:55:24;;;;;;;14.68;4.03;;;49.70;22.10;;;;;;6137507;29;20034;-75
2023/07/18 15:58:25;;;;;;;7.30;3.65;;;49.80;21.90;;;;;;6145668;29;20047;-78
2023/07/18 16:01:26;;;;;;;7.50;3.83;;;49.80;22.00;;;;;;6144134;28;20039;-77
2023/07/18 16:04:26;;;;;;;11.50;3.53;;;49.70;22.10;;;;;;6148624;28;20022;-77
2023/07/18 16:07:27;;;;;;;8.38;3.35;;;49.70;22.00;;;;;;6162810;28;20465;-78
2023/07/18 16:10:28;;;;;;;10.25;3.20;;;49.90;21.90;;;;;;6144687;28;20035;-78
2023/07/18 16:13:31;;;;;;;9.85;3.92;;;49.90;21.90;;;;;;6146872;29;20066;-77
2023/07/18 16:16:32;;;;;;;11.32;3.72;;;49.90;22.00;;;;;;6144223;28;20043;-78
2023/07/18 16:19:33;;;;;;;6.28;3.70;;;49.80;21.90;;;;;;6145316;29;20058;-79
2023/07/18 16:22:34;;;;;;;6.35;3.70;;;49.70;22.00;;;;;;6129060;29;20174;-78
2023/07/18 16:25:35;;;;;;;6.78;3.50;;;49.40;22.20;;;;;;6143330;29;20035;-77
2023/07/18 16:28:37;;;;;;;7.68;3.60;;;49.30;22.20;;;;;;6143913;28;20122;-78
2023/07/18 16:31:40;;;;;;;14.70;3.85;;;49.60;22.30;;;;;;6166577;28;20508;-78
2023/07/18 16:34:40;;;;;;;5.72;3.58;;;49.70;22.50;;;;;;6167935;28;20027;-80
2023/07/18 16:37:42;;;;;;;8.43;3.78;;;49.60;22.10;;;;;;6163256;28;20045;-80
2023/07/18 16:40:42;;;;;;;8.23;3.60;;;49.30;22.30;;;;;;6165140;28;20038;-79
2023/07/18 16:43:43;;;;;;;18.30;3.85;;;49.10;22.30;;;;;;6143539;28;20034;-79
2023/07/18 16:46:44;;;;;;;11.15;3.70;;;48.70;22.50;;;;;;6128738;29;20019;-80
2023/07/18 16:49:46;;;;;;;4.75;3.20;;;48.40;22.70;;;;;;6149013;29;20106;-79
2023/07/18 16:52:48;;;;;;;12.82;3.75;;;48.20;22.80;;;;;;6149517;28;20019;-80
2023/07/18 16:55:50;;;;;;;7.93;3.38;;;47.70;23.10;;;;;;6139380;29;20032;-78
2023/07/18 16:58:52;;;;;;;9.10;3.35;;;46.80;23.60;;;;;;6147611;29;20051;-79
2023/07/18 17:01:52;;;;;;;10.45;3.33;;;45.90;24.30;;;;;;6140624;29;20035;-80
2023/07/18 17:04:53;;;;;;;15.05;4.15;;;44.90;24.90;;;;;;6147663;29;20260;-79
2023/07/18 17:07:54;;;;;;;13.63;3.35;;;44.00;25.60;;;;;;6116731;29;20134;-79
2023/07/18 17:10:55;;;;;;;7.05;3.03;;;43.40;26.20;;;;;;6131303;29;20019;-82
2023/07/18 17:13:55;;;;;;;5.43;3.33;;;42.70;26.60;;;;;;6148428;29;20028;-79
2023/07/18 17:16:56;;;;;;;8.10;3.05;;;42.10;27.10;;;;;;6148799;28;20037;-78
2023/07/18 17:19:59;;;;;;;8.70;3.03;;;41.50;27.50;;;;;;6149521;28;20503;-79
2023/07/18 17:22:59;;;;;;;7.85;4.10;;;41.10;27.80;;;;;;6152413;28;20049;-79
2023/07/18 17:26:00;;;;;;;16.55;3.30;;;40.90;28.10;;;;;;6155013;29;20027;-79
2023/07/18 17:29:01;;;;;;;7.38;3.47;;;40.70;28.30;;;;;;6152612;28;20084;-79
2023/07/18 17:32:02;;;;;;;9.40;3.97;;;40.60;28.70;;;;;;6155389;29;20043;-80
2023/07/18 17:35:03;;;;;;;18.08;3.95;;;40.50;28.70;;;;;;6153606;29;20042;-79
2023/07/18 17:38:04;;;;;;;13.85;3.85;;;40.30;28.80;;;;;;6137472;29;20072;-78
2023/07/18 17:41:05;;;;;;;10.00;3.13;;;40.30;29.00;;;;;;6153295;29;20440;-80
2023/07/18 17:44:06;;;;;;;10.80;4.00;;;40.10;29.60;;;;;;6152212;28;20031;-80
2023/07/18 17:47:06;;;;;;;14.15;4.22;;;40.00;29.60;;;;;;6153589;29;20823;-80
2023/07/18 17:50:08;;;;;;;10.90;3.97;;;39.80;30.10;;;;;;6152102;29;20130;-80
2023/07/18 17:53:11;;;;;;;13.85;4.55;;;39.60;31.00;;;;;;6153570;28;20032;-79
2023/07/18 17:56:12;;;;;;;15.30;4.80;;;39.40;31.90;;;;;;6154091;28;20046;-79
2023/07/18 17:59:13;;;;;;;10.23;4.13;;;39.10;32.60;;;;;;6134651;29;20039;-80
2023/07/18 18:02:14;;;;;;;10.45;4.45;;;38.90;33.10;;;;;;6151613;28;20034;-82
2023/07/18 18:05:47;;;;;;;14.45;3.70;;;38.70;33.30;;;;;;6170031;28;20106;-80
2023/07/18 18:08:48;;;;;;;8.20;3.75;;;38.50;32.90;;;;;;6168213;28;20039;-80
2023/07/18 18:11:51;;;;;;;18.73;3.83;;;38.30;32.50;;;;;;6159957;28;20054;-81
2023/07/18 18:14:51;;;;;;;9.07;3.60;;;38.20;32.60;;;;;;6150296;28;20035;-78
2023/07/18 18:17:53;;;;;;;5.90;3.42;;;38.00;32.60;;;;;;6162828;28;20544;-78
2023/07/18 18:20:55;;;;;;;9.02;3.78;;;37.90;32.70;;;;;;6162747;28;20098;-79
2023/07/18 18:23:56;;;;;;;6.80;3.28;;;37.70;32.90;;;;;;6146610;28;20039;-78
2023/07/18 18:26:57;;;;;;;8.65;3.35;;;37.60;33.00;;;;;;6146176;29;20105;-79
2023/07/18 18:29:58;;;;;;;11.45;3.58;;;37.50;33.30;;;;;;6149107;28;20112;-78
2023/07/18 18:32:58;;;;;;;10.43;3.78;;;37.30;33.50;;;;;;6158860;28;20114;-78
2023/07/18 18:35:59;;;;;;;16.50;3.80;;;37.10;33.70;;;;;;6146574;28;20719;-77
2023/07/18 18:39:00;;;;;;;8.32;3.25;;;37.00;34.00;;;;;;6160547;28;20059;-81
2023/07/18 18:42:01;;;;;;;12.68;3.40;;;37.00;34.30;;;;;;6154407;28;20177;-81
2023/07/18 18:45:03;;;;;;;8.25;3.53;;;36.70;34.40;;;;;;6148646;29;20070;-81
2023/07/18 18:48:04;;;;;;;7.55;3.30;;;36.60;34.60;;;;;;6144776;28;20027;-79
2023/07/18 18:51:04;;;;;;;15.15;4.28;;;36.40;34.90;;;;;;6154998;28;20718;-78
2023/07/18 18:54:05;;;;;;;14.00;3.53;;;36.30;35.10;;;;;;6155767;28;20024;-78
2023/07/18 18:57:07;;;;;;;18.38;3.75;;;36.20;35.40;;;;;;6146754;28;20035;-79
2023/07/18 19:00:09;;;;;;;8.65;3.53;;;36.10;35.60;;;;;;6141127;29;20506;-79
2023/07/18 19:03:10;;;;;;;14.57;4.00;;;36.00;35.70;;;;;;6145849;29;20058;-78